Time,TemperatureF,DewpointF,PressureIn,WindDirection,WindDirectionDegrees,WindSpeedMPH,WindSpeedGustMPH,Humidity,HourlyPrecipIn,Conditions,Clouds,dailyrainin,SoftwareType,DateUTC
2013-01-21 10:39:00,61.7,49.0,30.24,ESE,117,3.0,4.0,64,0.00,,,0.00,weatherlink.com 1.10,2013-01-21 16:39:00,
2013-01-21 10:54:00,62.4,50.0,30.24,NNE,17,0.0,5.0,64,0.00,,,0.00,weatherlink.com 1.10,2013-01-21 16:54:00,
2013-01-21 11:10:00,63.5,51.0,30.24,NNE,32,4.0,4.0,64,0.00,,,0.00,weatherlink.com 1.10,2013-01-21 17:10:00,
2013-01-21 11:25:00,63.3,50.0,30.24,NNE,22,6.0,6.0,62,0.00,,,0.00,weatherlink.com 1.10,2013-01-21 17:25:00,
2013-01-21 11:40:00,64.9,51.0,30.23,North,11,5.0,5.0,61,0.00,,,0.00,weatherlink.com 1.10,2013-01-21 17:40:00,
2013-01-21 11:55:00,64.7,51.0,30.23,WSW,255,1.0,4.0,61,0.00,,,0.00,weatherlink.com 1.10,2013-01-21 17:55:00,
2013-01-21 12:10:00,65.7,51.0,30.22,SW,228,0.0,5.0,59,0.00,,,0.00,weatherlink.com 1.10,2013-01-21 18:10:00,
2013-01-21 12:25:00,65.7,51.0,30.21,ENE,63,4.0,5.0,58,0.00,,,0.00,weatherlink.com 1.10,2013-01-21 18:25:00,
2013-01-21 12:41:00,66.7,50.0,30.20,SSW,201,2.0,4.0,55,0.00,,,0.00,weatherlink.com 1.10,2013-01-21 18:41:00,
2013-01-21 12:56:00,68.4,51.0,30.19,NNE,13,2.0,6.0,54,0.00,,,0.00,weatherlink.com 1.10,2013-01-21 18:56:00,
2013-01-21 13:11:00,68.8,50.0,30.19,WNW,292,2.0,4.0,52,0.00,,,0.00,weatherlink.com 1.10,2013-01-21 19:11:00,
2013-01-21 13:26:00,67.8,49.0,30.19,WSW,248,2.0,5.0,51,0.00,,,0.00,weatherlink.com 1.10,2013-01-21 19:26:00,
2013-01-21 13:41:00,68.2,50.0,30.19,South,170,1.0,4.0,52,0.00,,,0.00,weatherlink.com 1.10,2013-01-21 19:41:00,
2013-01-21 13:56:00,68.5,49.0,30.18,NW,309,1.0,7.0,50,0.00,,,0.00,weatherlink.com 1.10,2013-01-21 19:56:00,
2013-01-21 14:11:00,68.1,50.0,30.18,West,273,3.0,5.0,52,0.00,,,0.00,weatherlink.com 1.10,2013-01-21 20:11:00,
2013-01-21 14:26:00,67.9,47.0,30.18,NE,56,3.0,7.0,47,0.00,,,0.00,weatherlink.com 1.10,2013-01-21 20:26:00,
2013-01-21 14:41:00,67.7,48.0,30.18,NE,43,1.0,8.0,50,0.00,,,0.00,weatherlink.com 1.10,2013-01-21 20:41:00,
2013-01-21 14:56:00,68.2,48.0,30.18,NNW,333,2.0,8.0,49,0.00,,,0.00,weatherlink.com 1.10,2013-01-21 20:56:00,
2013-01-21 15:11:00,68.8,48.0,30.18,West,266,2.0,5.0,47,0.00,,,0.00,weatherlink.com 1.10,2013-01-21 21:11:00,
2013-01-21 15:26:00,68.4,48.0,30.18,SW,219,0.0,4.0,48,0.00,,,0.00,weatherlink.com 1.10,2013-01-21 21:26:00,
2013-01-21 15:41:00,67.8,47.0,30.18,North,1,2.0,10.0,48,0.00,,,0.00,weatherlink.com 1.10,2013-01-21 21:41:00,
2013-01-21 15:56:00,68.2,48.0,30.18,NE,39,3.0,5.0,49,0.00,,,0.00,weatherlink.com 1.10,2013-01-21 21:56:00,
2013-01-21 16:11:00,67.8,48.0,30.18,NNE,17,2.0,5.0,49,0.00,,,0.00,weatherlink.com 1.10,2013-01-21 22:11:00,
2013-01-21 16:26:00,67.3,48.0,30.18,North,7,3.0,5.0,50,0.00,,,0.00,weatherlink.com 1.10,2013-01-21 22:26:00,
2013-01-21 16:41:00,66.9,48.0,30.17,NNE,25,1.0,5.0,50,0.00,,,0.00,weatherlink.com 1.10,2013-01-21 22:41:00,
2013-01-21 16:56:00,66.6,48.0,30.18,NNE,25,0.0,2.0,52,0.00,,,0.00,weatherlink.com 1.10,2013-01-21 22:56:00,
2013-01-21 17:11:00,66.3,48.0,30.18,NNE,25,0.0,1.0,52,0.00,,,0.00,weatherlink.com 1.10,2013-01-21 23:11:00,
2013-01-21 17:26:00,66.5,49.0,30.18,NNE,25,0.0,0.0,54,0.00,,,0.00,weatherlink.com 1.10,2013-01-21 23:26:00,
2013-01-21 17:41:00,64.2,49.0,30.18,NNE,25,0.0,1.0,58,0.00,,,0.00,weatherlink.com 1.10,2013-01-21 23:41:00,
2013-01-21 17:56:00,62.6,49.0,30.18,NNE,25,0.0,0.0,62,0.00,,,0.00,weatherlink.com 1.10,2013-01-21 23:56:00,
2013-01-21 18:11:00,61.4,50.0,30.18,NNE,25,0.0,0.0,66,0.00,,,0.00,weatherlink.com 1.10,2013-01-22 00:11:00,
2013-01-21 18:26:00,59.6,49.0,30.19,SE,143,0.0,2.0,69,0.00,,,0.00,weatherlink.com 1.10,2013-01-22 00:26:00,
2013-01-21 18:41:00,58.5,50.0,30.19,SSE,150,0.0,0.0,72,0.00,,,0.00,weatherlink.com 1.10,2013-01-22 00:41:00,
2013-01-21 18:56:00,57.8,49.0,30.19,SSE,150,0.0,0.0,73,0.00,,,0.00,weatherlink.com 1.10,2013-01-22 00:56:00,
2013-01-21 19:11:00,56.6,49.0,30.19,SSE,150,0.0,0.0,75,0.00,,,0.00,weatherlink.com 1.10,2013-01-22 01:11:00,
2013-01-21 19:26:00,55.7,49.0,30.19,SSE,150,0.0,0.0,78,0.00,,,0.00,weatherlink.com 1.10,2013-01-22 01:26:00,
2013-01-21 19:41:00,54.9,49.0,30.20,SSE,151,0.0,0.0,80,0.00,,,0.00,weatherlink.com 1.10,2013-01-22 01:41:00,
2013-01-21 19:56:00,54.1,48.0,30.20,SSE,150,0.0,1.0,81,0.00,,,0.00,weatherlink.com 1.10,2013-01-22 01:56:00,
2013-01-21 20:10:00,53.5,48.0,30.20,SSE,151,0.0,0.0,83,0.00,,,0.00,weatherlink.com 1.10,2013-01-22 02:10:00,
2013-01-21 20:25:00,52.8,48.0,30.20,SSE,151,0.0,0.0,85,0.00,,,0.00,weatherlink.com 1.10,2013-01-22 02:25:00,
2013-01-21 20:40:00,51.8,48.0,30.20,SSE,151,0.0,0.0,86,0.00,,,0.00,weatherlink.com 1.10,2013-01-22 02:40:00,
2013-01-21 20:55:00,51.3,48.0,30.20,SSE,151,0.0,0.0,88,0.00,,,0.00,weatherlink.com 1.10,2013-01-22 02:55:00,
2013-01-21 21:10:00,51.6,48.0,30.21,ENE,72,0.0,6.0,88,0.00,,,0.00,weatherlink.com 1.10,2013-01-22 03:10:00,
2013-01-21 21:25:00,51.2,47.0,30.21,ENE,72,0.0,1.0,87,0.00,,,0.00,weatherlink.com 1.10,2013-01-22 03:25:00,
2013-01-21 21:40:00,50.6,47.0,30.22,ENE,72,0.0,1.0,89,0.00,,,0.00,weatherlink.com 1.10,2013-01-22 03:40:00,
2013-01-21 21:55:00,50.3,47.0,30.22,ENE,72,0.0,0.0,89,0.00,,,0.00,weatherlink.com 1.10,2013-01-22 03:55:00,
2013-01-21 22:10:00,49.7,47.0,30.22,NNE,26,0.0,2.0,91,0.00,,,0.00,weatherlink.com 1.10,2013-01-22 04:10:00,
2013-01-21 22:25:00,50.0,47.0,30.22,NE,56,0.0,1.0,90,0.00,,,0.00,weatherlink.com 1.10,2013-01-22 04:25:00,
2013-01-21 22:40:00,49.4,47.0,30.22,NE,56,0.0,1.0,90,0.00,,,0.00,weatherlink.com 1.10,2013-01-22 04:40:00,
2013-01-21 22:55:00,48.7,46.0,30.22,NE,52,0.0,2.0,91,0.00,,,0.00,weatherlink.com 1.10,2013-01-22 04:55:00,
2013-01-21 23:10:00,48.3,46.0,30.22,NE,52,0.0,0.0,92,0.00,,,0.00,weatherlink.com 1.10,2013-01-22 05:10:00,
2013-01-21 23:25:00,47.8,46.0,30.23,NE,49,1.0,1.0,93,0.00,,,0.00,weatherlink.com 1.10,2013-01-22 05:25:00,
2013-01-21 23:40:00,47.4,45.0,30.23,NNE,31,0.0,1.0,93,0.00,,,0.00,weatherlink.com 1.10,2013-01-22 05:40:00,
2013-01-21 23:55:00,47.3,46.0,30.24,NNE,30,0.0,0.0,94,0.00,,,0.00,weatherlink.com 1.10,2013-01-22 05:55:00,